Time;durP1;ratioP1;P1;durP2;ratioP2;P2;SDS_P1;SDS_P2;PMS_P1;PMS_P2;Temp;Humidity;BMP_temperature;BMP_pressure;BME280_temperature;BME280_humidity;BME280_pressure;Samples;Min_cycle;Max_cycle;Signal;HPM_P1;HPM_P2
2022/02/13 00:01:51;;;;;;;4.90;1.50;;;;;;;0.93;48.15;99366.44;4997087;28;20041;-75
2022/02/13 00:04:17;;;;;;;7.43;1.70;;;;;;;0.92;48.06;99367.50;5030095;28;20061;-75
2022/02/13 00:06:43;;;;;;;5.57;1.25;;;;;;;0.88;48.20;99365.50;5009058;28;20160;-75
2022/02/13 00:09:10;;;;;;;7.65;1.90;;;;;;;0.96;48.11;99373.25;5029470;28;20424;-75
2022/02/13 00:11:37;;;;;;;6.32;1.58;;;;;;;1.01;48.01;99364.53;5029014;28;20107;-76
2022/02/13 00:14:04;;;;;;;5.65;1.40;;;;;;;0.98;48.10;99365.78;5024876;28;20620;-76
2022/02/13 00:16:31;;;;;;;11.38;1.70;;;;;;;0.91;48.25;99363.16;5031275;28;20045;-75
2022/02/13 00:18:57;;;;;;;8.52;1.55;;;;;;;0.96;48.26;99366.03;5030613;28;20045;-75
2022/02/13 00:21:23;;;;;;;8.63;1.77;;;;;;;0.84;48.58;99357.81;5026451;28;20045;-74
2022/02/13 00:23:49;;;;;;;4.88;1.75;;;;;;;0.91;48.55;99367.72;5028505;28;20492;-73
2022/02/13 00:26:16;;;;;;;8.48;2.25;;;;;;;0.85;48.65;99366.75;5022669;28;20405;-75
2022/02/13 00:28:43;;;;;;;9.35;2.40;;;;;;;0.80;48.77;99364.72;5015900;28;20049;-77
2022/02/13 00:31:09;;;;;;;7.82;2.03;;;;;;;0.72;49.09;99370.38;5021572;28;20079;-77
2022/02/13 00:33:36;;;;;;;6.38;1.77;;;;;;;0.77;48.99;99354.38;5027634;28;20056;-78
2022/02/13 00:36:03;;;;;;;4.83;1.80;;;;;;;0.73;49.24;99369.34;5023653;28;20213;-79
2022/02/13 00:38:29;;;;;;;7.68;1.42;;;;;;;0.84;49.02;99365.91;5024217;28;20147;-81
2022/02/13 00:40:55;;;;;;;7.40;1.90;;;;;;;0.81;49.02;99358.28;5006054;28;20104;-79
2022/02/13 00:43:21;;;;;;;9.38;1.92;;;;;;;0.89;49.17;99359.06;5024948;28;20068;-79
2022/02/13 00:45:49;;;;;;;7.28;1.90;;;;;;;0.90;49.24;99360.69;5028290;28;20060;-80
2022/02/13 00:48:15;;;;;;;6.72;1.95;;;;;;;0.91;49.05;99362.34;5024355;28;20564;-80
2022/02/13 00:50:43;;;;;;;6.20;1.70;;;;;;;0.93;49.19;99363.75;5029879;28;20136;-79
2022/02/13 00:53:09;;;;;;;8.32;1.77;;;;;;;0.91;49.45;99356.97;5026014;28;20075;-80
2022/02/13 00:55:36;;;;;;;5.20;1.35;;;;;;;0.85;49.25;99350.59;5017471;28;20175;-80
2022/02/13 00:58:02;;;;;;;7.10;1.60;;;;;;;1.04;49.11;99359.53;5025791;28;20099;-73
2022/02/13 01:00:28;;;;;;;5.68;1.50;;;;;;;0.91;49.46;99357.75;5025321;28;20112;-75
2022/02/13 01:02:56;;;;;;;9.35;1.67;;;;;;;0.95;49.40;99364.38;5046444;28;20523;-75
2022/02/13 01:05:23;;;;;;;7.50;2.05;;;;;;;0.95;49.50;99356.31;5019024;28;20625;-76
2022/02/13 01:07:49;;;;;;;6.20;1.48;;;;;;;0.96;49.42;99363.34;5029854;28;20055;-76
2022/02/13 01:10:15;;;;;;;6.63;1.90;;;;;;;0.75;50.28;99359.19;5027255;28;20042;-75
2022/02/13 01:12:41;;;;;;;4.85;1.42;;;;;;;0.85;50.03;99354.09;5008952;28;20057;-76
2022/02/13 01:15:08;;;;;;;11.52;1.50;;;;;;;0.89;50.03;99365.25;5028204;28;20073;-75
2022/02/13 01:17:34;;;;;;;8.93;1.55;;;;;;;0.85;50.43;99359.47;5028662;28;20053;-76
2022/02/13 01:20:03;;;;;;;6.57;1.42;;;;;;;0.94;50.45;99368.13;5010914;28;20076;-75
2022/02/13 01:22:29;;;;;;;8.82;1.80;;;;;;;0.98;50.21;99365.78;5016026;28;20066;-76
2022/02/13 01:24:55;;;;;;;8.68;1.80;;;;;;;0.97;50.22;99364.13;5029470;28;20477;-77
2022/02/13 01:27:21;;;;;;;8.20;1.85;;;;;;;0.94;50.46;99354.66;5030404;28;20053;-73
2022/02/13 01:29:47;;;;;;;13.10;2.22;;;;;;;0.92;50.58;99358.59;5024820;28;20054;-76
2022/02/13 01:32:14;;;;;;;9.70;2.03;;;;;;;0.93;50.61;99347.59;5027585;28;20172;-76
2022/02/13 01:34:40;;;;;;;9.52;2.22;;;;;;;0.94;50.72;99346.56;5023366;28;20045;-75
2022/02/13 01:37:07;;;;;;;11.05;2.28;;;;;;;1.04;50.71;99359.53;5023380;28;20057;-76
2022/02/13 01:39:34;;;;;;;6.93;1.30;;;;;;;1.07;50.81;99352.84;5045784;28;20041;-75
2022/02/13 01:42:01;;;;;;;6.07;1.52;;;;;;;0.97;51.02;99354.22;5028150;28;20041;-77
2022/02/13 01:44:30;;;;;;;6.30;1.33;;;;;;;0.97;51.18;99361.44;5027804;28;20541;-76
2022/02/13 01:46:56;;;;;;;8.27;1.50;;;;;;;0.88;51.29;99346.66;5011801;28;20041;-76
2022/02/13 01:49:23;;;;;;;15.48;2.20;;;;;;;1.06;51.14;99373.59;5028676;28;20093;-76
2022/02/13 01:51:50;;;;;;;8.77;1.90;;;;;;;1.08;51.36;99362.56;5003705;28;20115;-79
2022/02/13 01:54:18;;;;;;;7.68;1.75;;;;;;;1.09;51.29;99366.91;5029060;28;20045;-78
2022/02/13 01:56:44;;;;;;;;;;;;;;;1.15;51.46;99360.66;5026793;28;20053;-78
2022/02/13 01:59:11;;;;;;;12.48;2.22;;;;;;;1.16;51.37;99362.28;5026849;28;20365;-81
2022/02/13 02:01:37;;;;;;;7.35;1.85;;;;;;;1.21;51.31;99362.44;5017942;28;20413;-81
2022/02/13 02:04:03;;;;;;;13.25;2.25;;;;;;;1.11;51.58;99364.84;5030391;28;20421;-80
2022/02/13 02:06:30;;;;;;;11.90;1.90;;;;;;;1.13;51.46;99357.38;5045290;28;20068;-80
2022/02/13 02:08:56;;;;;;;13.52;2.00;;;;;;;1.16;51.87;99362.28;5032593;28;20045;-77
2022/02/13 02:11:23;;;;;;;15.05;2.35;;;;;;;1.21;51.67;99370.53;5028573;28;20046;-75
2022/02/13 02:13:49;;;;;;;7.10;1.83;;;;;;;1.27;51.74;99372.34;5033802;28;20042;-75
2022/02/13 02:16:16;;;;;;;10.55;1.75;;;;;;;1.25;51.76;99355.56;5030743;28;20448;-75
2022/02/13 02:18:42;;;;;;;15.25;2.88;;;;;;;1.31;51.86;99364.59;5033886;28;20077;-76
2022/02/13 02:21:09;;;;;;;11.10;2.50;;;;;;;1.34;51.54;99341.78;5033023;28;20103;-74
2022/02/13 02:23:39;;;;;;;8.30;1.67;;;;;;;1.45;51.86;99361.75;5005608;28;20042;-75
2022/02/13 02:26:05;;;;;;;6.82;1.80;;;;;;;1.36;51.84;99354.00;5030992;28;20053;-80
2022/02/13 02:28:32;;;;;;;8.48;2.28;;;;;;;1.35;51.90;99363.13;5049145;28;20038;-82
2022/02/13 02:30:58;;;;;;;10.30;2.08;;;;;;;1.36;52.13;99377.41;5031626;28;20072;-81
2022/02/13 02:33:24;;;;;;;14.35;1.98;;;;;;;1.36;52.37;99372.03;5031842;28;20099;-81
2022/02/13 02:35:50;;;;;;;9.80;1.80;;;;;;;1.26;52.56;99365.31;5033302;28;20042;-81
2022/02/13 02:38:17;;;;;;;11.80;2.05;;;;;;;1.26;52.84;99359.09;5033396;28;20167;-79
2022/02/13 02:40:45;;;;;;;12.27;2.20;;;;;;;1.27;52.79;99372.34;5027637;28;20056;-79
2022/02/13 02:43:11;;;;;;;11.63;2.65;;;;;;;1.32;52.82;99373.53;5031597;28;20071;-81
2022/02/13 02:45:37;;;;;;;13.30;2.33;;;;;;;1.37;52.61;99362.88;5029475;28;20042;-79
2022/02/13 02:48:04;;;;;;;7.47;1.92;;;;;;;1.32;52.92;99368.13;5031683;28;20053;-73
2022/02/13 02:50:30;;;;;;;9.85;1.80;;;;;;;1.32;53.28;99366.25;5025020;28;20516;-74
2022/02/13 02:52:57;;;;;;;12.23;2.78;;;;;;;1.35;52.92;99375.78;5021364;28;20053;-74
2022/02/13 02:55:23;;;;;;;12.60;2.33;;;;;;;1.33;53.06;99362.53;5032825;28;20138;-74
2022/02/13 02:57:50;;;;;;;11.27;2.00;;;;;;;1.30;53.06;99370.25;5032136;28;20080;-73
2022/02/13 03:00:16;;;;;;;9.88;1.85;;;;;;;1.42;52.84;99371.94;5028317;28;20402;-73
2022/02/13 03:02:43;;;;;;;7.90;1.80;;;;;;;1.36;52.99;99356.69;5031235;28;20045;-74
2022/02/13 03:05:10;;;;;;;10.52;1.48;;;;;;;1.39;53.01;99363.47;5027675;28;20043;-74
2022/02/13 03:07:36;;;;;;;5.95;1.60;;;;;;;1.27;53.19;99361.56;5033488;28;20092;-74
2022/02/13 03:10:03;;;;;;;6.63;1.75;;;;;;;1.31;53.06;99363.81;5028423;28;20053;-73
2022/02/13 03:12:29;;;;;;;9.63;3.03;;;;;;;1.39;52.98;99360.78;5038646;28;20085;-75
2022/02/13 03:14:56;;;;;;;11.23;3.40;;;;;;;1.46;52.84;99371.50;4999365;28;20054;-74
2022/02/13 03:17:23;;;;;;;14.55;3.40;;;;;;;1.37;53.02;99363.72;5030161;28;20054;-74
2022/02/13 03:19:49;;;;;;;11.90;3.13;;;;;;;1.39;53.04;99369.72;5029485;28;20099;-75
2022/02/13 03:22:15;;;;;;;7.85;2.17;;;;;;;1.39;53.20;99374.25;5031834;28;20049;-74
2022/02/13 03:24:41;;;;;;;11.43;2.20;;;;;;;1.34;53.43;99358.78;5013807;28;20045;-75
2022/02/13 03:27:08;;;;;;;8.65;1.90;;;;;;;1.27;53.61;99375.03;5022369;28;20084;-73
2022/02/13 03:29:34;;;;;;;13.00;2.42;;;;;;;1.41;53.27;99369.50;5030272;28;20055;-75
2022/02/13 03:32:01;;;;;;;9.65;1.50;;;;;;;1.45;53.14;99369.84;5024450;28;20046;-75
2022/02/13 03:34:27;;;;;;;11.25;2.00;;;;;;;1.47;53.15;99379.38;4997810;28;20037;-75
2022/02/13 03:36:54;;;;;;;7.88;2.10;;;;;;;1.48;53.14;99375.63;5029418;28;20116;-75
2022/02/13 03:39:21;;;;;;;12.05;2.45;;;;;;;1.51;52.97;99350.09;5030257;28;20144;-76
2022/02/13 03:41:47;;;;;;;13.70;2.72;;;;;;;1.64;52.95;99374.19;5028567;28;20099;-76
2022/02/13 03:44:13;;;;;;;9.52;1.95;;;;;;;1.68;52.72;99372.69;5012814;28;20452;-76
2022/02/13 03:46:39;;;;;;;13.73;2.47;;;;;;;1.64;52.93;99379.59;5028616;28;20050;-75
2022/02/13 03:49:07;;;;;;;11.93;2.50;;;;;;;1.59;53.18;99381.31;5021681;28;20053;-77
2022/02/13 03:51:33;;;;;;;12.57;2.38;;;;;;;1.58;53.22;99377.78;5025307;28;20060;-75
2022/02/13 03:54:00;;;;;;;9.75;2.10;;;;;;;1.57;53.15;99370.75;5023360;28;20053;-75
2022/02/13 03:56:26;;;;;;;9.73;2.30;;;;;;;1.71;52.82;99376.78;5031486;28;20049;-75
2022/02/13 03:58:52;;;;;;;13.38;2.00;;;;;;;1.71;52.78;99371.41;5032886;28;20045;-75
2022/02/13 04:01:19;;;;;;;11.30;2.30;;;;;;;1.73;52.99;99379.28;5022854;28;20079;-76
2022/02/13 04:03:45;;;;;;;12.13;2.58;;;;;;;1.86;52.56;99380.97;5017945;28;20075;-77
2022/02/13 04:06:12;;;;;;;11.38;1.80;;;;;;;1.77;52.71;99375.06;5017321;28;20509;-76
2022/02/13 04:08:39;;;;;;;11.45;2.10;;;;;;;1.76;52.82;99382.34;5019044;28;20131;-76
2022/02/13 04:11:05;;;;;;;12.18;1.98;;;;;;;1.84;52.73;99379.31;5013470;28;20585;-76
2022/02/13 04:13:31;;;;;;;12.20;2.33;;;;;;;1.95;52.36;99385.84;5019586;28;20045;-76
2022/02/13 04:15:58;;;;;;;12.55;2.88;;;;;;;1.97;52.40;99396.38;5017082;28;20073;-76
2022/02/13 04:18:24;;;;;;;12.43;2.22;;;;;;;2.03;52.16;99382.00;5019295;28;20489;-77
2022/02/13 04:20:50;;;;;;;10.73;2.00;;;;;;;2.03;51.86;99364.97;5012759;28;20514;-77
2022/02/13 04:23:18;;;;;;;7.50;1.80;;;;;;;2.12;52.29;99390.59;5025907;28;20038;-76
2022/02/13 04:25:44;;;;;;;11.70;2.42;;;;;;;2.16;51.90;99402.56;5010860;28;20140;-77
2022/02/13 04:28:10;;;;;;;10.48;2.28;;;;;;;2.08;52.11;99379.44;5020221;28;20060;-76
2022/02/13 04:30:36;;;;;;;10.00;2.55;;;;;;;2.12;52.34;99364.41;5015622;28;20049;-76
2022/02/13 04:33:03;;;;;;;8.45;1.67;;;;;;;2.21;52.48;99393.78;5015075;28;20049;-77
2022/02/13 04:35:29;;;;;;;7.38;1.95;;;;;;;2.32;52.08;99381.38;5001943;28;20064;-77
2022/02/13 04:37:56;;;;;;;9.20;2.08;;;;;;;2.26;52.47;99407.41;5020553;28;20057;-77
2022/02/13 04:40:25;;;;;;;11.10;2.17;;;;;;;2.33;52.25;99396.50;5030866;28;20056;-75
2022/02/13 04:42:52;;;;;;;10.35;2.08;;;;;;;2.28;52.50;99399.91;5018594;28;20045;-75
2022/02/13 04:45:18;;;;;;;8.40;1.90;;;;;;;2.39;51.98;99395.56;5030461;28;20045;-75
2022/02/13 04:47:45;;;;;;;7.20;1.88;;;;;;;2.20;51.60;99390.25;5028308;28;20611;-74
2022/02/13 04:50:11;;;;;;;11.02;2.35;;;;;;;2.31;51.85;99407.53;5012172;28;20046;-76
2022/02/13 04:52:38;;;;;;;8.13;1.60;;;;;;;2.26;51.58;99393.91;5018199;28;20045;-76
2022/02/13 04:55:05;;;;;;;6.78;1.63;;;;;;;2.15;51.55;99381.19;5026480;28;20076;-75
2022/02/13 04:57:32;;;;;;;10.32;2.00;;;;;;;2.37;51.60;99416.56;5046860;28;20049;-77
2022/02/13 04:59:58;;;;;;;9.50;2.08;;;;;;;2.46;51.24;99422.47;5029205;28;20049;-75
2022/02/13 05:02:25;;;;;;;8.40;1.67;;;;;;;2.41;51.09;99420.44;5029715;28;20041;-75
2022/02/13 05:04:51;;;;;;;8.48;1.77;;;;;;;2.22;51.40;99401.63;5029426;28;20402;-74
2022/02/13 05:07:17;;;;;;;6.93;1.80;;;;;;;2.29;51.46;99423.13;5029797;28;20080;-73
2022/02/13 05:09:43;;;;;;;10.30;2.10;;;;;;;2.35;51.41;99424.91;5030059;28;20144;-76
2022/02/13 05:12:09;;;;;;;8.23;1.50;;;;;;;2.33;51.29;99428.88;5034017;28;20061;-75
2022/02/13 05:14:37;;;;;;;13.15;1.95;;;;;;;2.40;51.20;99425.03;5021817;28;20080;-74
2022/02/13 05:17:04;;;;;;;9.90;1.85;;;;;;;2.43;51.08;99433.72;5027214;28;20144;-75
2022/02/13 05:19:30;;;;;;;11.20;1.90;;;;;;;2.38;51.34;99432.56;5016689;28;20465;-76
2022/02/13 05:21:59;;;;;;;8.95;1.67;;;;;;;2.29;51.17;99425.00;5029114;28;20418;-76
2022/02/13 05:24:26;;;;;;;11.48;2.83;;;;;;;2.39;51.28;99433.34;5021602;28;20087;-76
2022/02/13 05:26:52;;;;;;;20.02;2.53;;;;;;;2.41;51.20;99436.66;5028782;28;20573;-73
2022/02/13 05:29:18;;;;;;;10.43;2.22;;;;;;;2.40;51.24;99435.00;5022053;28;20128;-75
2022/02/13 05:31:46;;;;;;;8.77;1.58;;;;;;;2.41;51.30;99429.38;5019736;28;20167;-76
2022/02/13 05:34:15;;;;;;;7.75;1.70;;;;;;;2.23;51.58;99410.56;5029667;28;20046;-74
2022/02/13 05:36:43;;;;;;;7.15;1.80;;;;;;;2.26;51.56;99434.38;5026582;28;20060;-74
2022/02/13 05:39:17;;;;;;;8.65;2.25;;;;;;;2.28;51.62;99451.16;5026552;28;20045;-74
2022/02/13 05:41:45;;;;;;;6.78;1.85;;;;;;;2.45;51.06;99455.91;5021156;28;20049;-75
2022/02/13 05:44:11;;;;;;;9.88;2.22;;;;;;;2.32;51.16;99435.34;5024164;28;20141;-72
2022/02/13 05:46:38;;;;;;;10.55;2.58;;;;;;;2.30;51.12;99426.66;5040331;28;20482;-74
2022/02/13 05:49:05;;;;;;;12.00;2.72;;;;;;;2.49;51.04;99454.38;5025660;28;20468;-75
2022/02/13 05:51:31;;;;;;;14.90;2.78;;;;;;;2.49;51.21;99457.91;5020963;28;20096;-75
2022/02/13 05:53:58;;;;;;;11.05;2.90;;;;;;;2.47;51.24;99441.13;5021418;28;20041;-72
2022/02/13 05:56:24;;;;;;;10.13;2.17;;;;;;;2.39;51.29;99465.75;5019358;28;20448;-74
2022/02/13 05:58:51;;;;;;;12.10;2.33;;;;;;;2.38;51.27;99450.59;5026201;28;20506;-73
2022/02/13 06:01:18;;;;;;;8.93;2.40;;;;;;;2.39;51.36;99461.19;5027034;28;21938;-72
2022/02/13 06:03:44;;;;;;;10.43;2.70;;;;;;;2.35;51.38;99462.69;5028683;28;20080;-74
2022/02/13 06:06:12;;;;;;;13.70;3.58;;;;;;;2.32;51.16;99465.03;5023351;28;20045;-74
2022/02/13 06:08:39;;;;;;;10.25;2.40;;;;;;;2.41;51.26;99458.22;5001025;28;20104;-74
2022/02/13 06:11:05;;;;;;;11.65;2.00;;;;;;;2.41;51.26;99469.88;5026659;28;20049;-73
2022/02/13 06:13:32;;;;;;;11.38;2.17;;;;;;;2.40;51.24;99464.69;5027638;28;20045;-77
2022/02/13 06:16:01;;;;;;;6.78;2.00;;;;;;;2.44;51.15;99452.41;5022033;28;20108;-74
2022/02/13 06:18:27;;;;;;;12.32;3.00;;;;;;;2.58;50.80;99453.03;5018437;28;20112;-73
2022/02/13 06:20:53;;;;;;;12.80;3.22;;;;;;;2.43;51.10;99431.03;5023135;28;20133;-73
2022/02/13 06:23:21;;;;;;;10.15;2.90;;;;;;;2.51;51.17;99455.81;5025522;28;20053;-74
2022/02/13 06:25:47;;;;;;;9.50;2.50;;;;;;;2.51;51.10;99465.81;5036289;28;20510;-73
2022/02/13 06:28:13;;;;;;;7.50;2.10;;;;;;;2.52;51.25;99467.44;5005777;28;20671;-73
2022/02/13 06:30:40;;;;;;;12.68;2.65;;;;;;;2.52;50.98;99453.94;5022335;28;20412;-73
2022/02/13 06:33:06;;;;;;;17.33;2.40;;;;;;;2.34;51.24;99438.63;5006861;28;20045;-72
2022/02/13 06:35:33;;;;;;;10.60;2.80;;;;;;;2.67;50.71;99467.00;5042381;28;20053;-74
2022/02/13 06:38:01;;;;;;;14.80;3.00;;;;;;;2.68;50.76;99480.28;5023646;28;20131;-74
2022/02/13 06:40:28;;;;;;;;;;;;;;;2.59;50.91;99467.34;5025967;28;20046;-74
2022/02/13 06:42:55;;;;;;;10.07;2.30;;;;;;;2.52;51.21;99465.56;5043493;28;20353;-74
2022/02/13 06:45:21;;;;;;;10.07;2.10;;;;;;;2.56;51.25;99482.13;5028262;28;20049;-74
2022/02/13 06:47:48;;;;;;;5.80;1.73;;;;;;;2.62;51.13;99480.38;5007887;28;20049;-74
2022/02/13 06:50:14;;;;;;;12.20;3.00;;;;;;;2.65;50.93;99477.22;5030560;28;20073;-72
2022/02/13 06:52:40;;;;;;;18.63;2.50;;;;;;;2.64;50.93;99479.09;5008127;28;20474;-72
2022/02/13 06:55:07;;;;;;;10.93;2.40;;;;;;;2.60;51.13;99469.81;5029906;28;20054;-75
2022/02/13 06:57:41;;;;;;;16.52;2.53;;;;;;;2.70;51.03;99488.13;5029160;28;20049;-74
2022/02/13 07:00:10;;;;;;;12.35;2.75;;;;;;;2.75;50.86;99498.25;5019648;28;20534;-74
2022/02/13 07:02:36;;;;;;;12.68;2.70;;;;;;;2.76;50.84;99491.81;5023701;28;20413;-73
2022/02/13 07:05:03;;;;;;;12.90;2.65;;;;;;;2.76;50.92;99478.31;5025487;28;20544;-72
2022/02/13 07:07:29;;;;;;;8.90;2.42;;;;;;;2.84;50.95;99494.19;5025752;28;20487;-73
2022/02/13 07:09:55;;;;;;;12.52;3.05;;;;;;;2.84;50.92;99492.28;5024642;28;20486;-71
2022/02/13 07:12:22;;;;;;;15.40;2.80;;;;;;;2.81;50.77;99497.31;5007123;28;20422;-76
2022/02/13 07:14:49;;;;;;;16.15;2.97;;;;;;;2.79;50.89;99489.47;5042648;28;20054;-76
2022/02/13 07:17:15;;;;;;;11.90;3.03;;;;;;;2.74;51.10;99494.75;5014968;28;20501;-75
2022/02/13 07:19:41;;;;;;;15.07;3.35;;;;;;;2.97;50.56;99490.44;5022419;28;20521;-74
2022/02/13 07:22:08;;;;;;;11.38;2.72;;;;;;;2.94;50.62;99501.72;5024078;28;20069;-75
2022/02/13 07:24:34;;;;;;;8.13;2.08;;;;;;;3.07;50.35;99476.34;5013655;28;20054;-74
2022/02/13 07:27:00;;;;;;;12.88;1.83;;;;;;;3.14;50.18;99504.09;5015238;28;20054;-78
2022/02/13 07:29:27;;;;;;;9.25;2.20;;;;;;;3.10;50.20;99492.94;5006406;28;20061;-77
2022/02/13 07:31:54;;;;;;;11.00;2.67;;;;;;;3.18;50.16;99505.28;5032706;28;20517;-81
2022/02/13 07:34:20;;;;;;;11.07;2.25;;;;;;;3.10;50.06;99497.50;5029820;28;20049;-78
2022/02/13 07:36:54;;;;;;;13.30;2.65;;;;;;;3.11;50.32;99518.06;5027466;28;20045;-79
2022/02/13 07:39:20;;;;;;;13.27;2.28;;;;;;;3.04;50.52;99507.34;5021444;28;20478;-79
2022/02/13 07:41:46;;;;;;;10.80;2.20;;;;;;;3.08;50.36;99505.03;5033163;28;20076;-79
2022/02/13 07:44:13;;;;;;;13.65;3.13;;;;;;;3.05;50.57;99519.84;5032408;28;20076;-80
2022/02/13 07:46:39;;;;;;;12.15;2.60;;;;;;;2.88;50.57;99511.56;5033624;28;20977;-80
2022/02/13 07:49:06;;;;;;;11.10;2.45;;;;;;;2.80;50.96;99511.88;5017909;28;20042;-81
2022/02/13 07:51:33;;;;;;;9.65;2.30;;;;;;;2.94;50.72;99518.72;5013380;28;20042;-82
2022/02/13 07:54:00;;;;;;;7.70;2.30;;;;;;;3.05;50.60;99524.41;5022769;28;20046;-79
2022/02/13 07:56:26;;;;;;;15.05;2.67;;;;;;;2.93;50.58;99500.88;5016744;28;20049;-82
2022/02/13 07:58:52;;;;;;;11.20;3.05;;;;;;;2.87;50.70;99492.88;5045333;28;20278;-81
2022/02/13 08:01:19;;;;;;;15.63;3.60;;;;;;;3.09;50.72;99526.41;5024558;28;20088;-78
2022/02/13 08:03:45;;;;;;;31.33;4.87;;;;;;;3.04;50.92;99528.97;5016375;28;20050;-79
2022/02/13 08:06:18;;;;;;;19.58;3.08;;;;;;;3.06;50.88;99532.28;5028228;28;20633;-81
2022/02/13 08:08:44;;;;;;;11.93;2.90;;;;;;;3.14;50.93;99530.28;5027055;28;20530;-81
2022/02/13 08:11:11;;;;;;;9.57;2.35;;;;;;;3.14;50.79;99524.88;5026929;28;20045;-82
2022/02/13 08:13:39;;;;;;;7.75;2.50;;;;;;;3.10;50.86;99546.13;5026550;28;20727;-79
2022/02/13 08:16:06;;;;;;;14.10;2.35;;;;;;;3.08;50.63;99521.22;5032351;28;20054;-79
2022/02/13 08:18:33;;;;;;;12.23;2.47;;;;;;;3.19;50.83;99512.31;5024339;28;20506;-79
2022/02/13 08:21:03;;;;;;;11.45;2.67;;;;;;;3.16;50.81;99523.59;5020817;28;20050;-78
2022/02/13 08:23:32;;;;;;;13.02;2.75;;;;;;;3.22;50.65;99529.97;5022255;28;20141;-79
2022/02/13 08:25:58;;;;;;;12.77;2.88;;;;;;;3.30;50.86;99543.13;5032510;28;20510;-79
2022/02/13 08:28:26;;;;;;;14.32;2.28;;;;;;;3.27;50.92;99540.88;5017576;28;20049;-82
2022/02/13 08:30:53;;;;;;;10.85;2.42;;;;;;;3.32;50.71;99537.50;4982410;28;20053;-76
2022/02/13 08:33:19;;;;;;;11.68;3.00;;;;;;;3.46;50.61;99543.50;5022102;28;20050;-73
2022/02/13 08:35:45;;;;;;;13.02;2.70;;;;;;;3.46;50.66;99554.31;5024365;28;20465;-74
2022/02/13 08:38:11;;;;;;;13.68;2.60;;;;;;;3.43;50.70;99557.47;5035686;28;20100;-76
2022/02/13 08:40:40;;;;;;;11.43;2.90;;;;;;;3.47;50.72;99551.38;5024348;28;20050;-75
2022/02/13 08:43:06;;;;;;;23.08;3.20;;;;;;;3.66;50.39;99548.56;5022190;28;20533;-77
2022/02/13 08:45:35;;;;;;;16.57;3.20;;;;;;;3.71;50.49;99543.25;5018418;28;20116;-75
2022/02/13 08:48:01;;;;;;;10.40;2.70;;;;;;;3.75;50.31;99552.56;5017826;28;20049;-75
2022/02/13 08:50:28;;;;;;;11.55;2.70;;;;;;;3.79;50.26;99542.91;5003712;28;20057;-74
2022/02/13 08:52:55;;;;;;;10.07;2.63;;;;;;;3.87;50.13;99560.66;5024923;28;20111;-74
2022/02/13 08:55:21;;;;;;;8.32;2.20;;;;;;;3.91;50.10;99539.38;5027586;28;20057;-73
2022/02/13 08:57:50;;;;;;;9.93;2.38;;;;;;;3.88;49.78;99535.25;5025815;28;20042;-74
2022/02/13 09:00:17;;;;;;;13.95;2.15;;;;;;;3.86;49.87;99540.09;5005248;28;20053;-75
2022/02/13 09:02:44;;;;;;;13.07;2.95;;;;;;;3.89;49.98;99515.25;5028317;28;20081;-74
2022/02/13 09:05:10;;;;;;;9.88;2.15;;;;;;;4.01;49.63;99547.69;5043316;28;20071;-75
2022/02/13 09:07:40;;;;;;;9.82;2.63;;;;;;;4.01;49.83;99555.00;5018784;28;20123;-76
2022/02/13 09:10:09;;;;;;;11.30;2.47;;;;;;;4.02;49.87;99510.66;5021183;28;20446;-75
2022/02/13 09:12:36;;;;;;;17.23;2.67;;;;;;;4.14;49.87;99546.63;5014009;28;20053;-76
2022/02/13 09:15:05;;;;;;;9.27;2.67;;;;;;;4.22;49.30;99535.44;5039122;28;20049;-75
2022/02/13 09:17:32;;;;;;;12.85;3.28;;;;;;;4.32;49.17;99534.00;5012196;28;20081;-75
2022/02/13 09:19:58;;;;;;;10.18;2.40;;;;;;;4.44;49.13;99539.38;5037246;28;20231;-75
2022/02/13 09:22:25;;;;;;;12.40;2.45;;;;;;;4.45;49.11;99538.31;5027705;28;20046;-75
2022/02/13 09:24:52;;;;;;;10.85;2.45;;;;;;;4.62;48.67;99527.56;5029540;28;20053;-75
2022/02/13 09:27:18;;;;;;;13.10;2.13;;;;;;;4.65;48.31;99533.28;5007743;28;20081;-74
2022/02/13 09:29:52;;;;;;;8.02;2.20;;;;;;;4.64;48.34;99530.84;5023141;28;20049;-74
2022/02/13 09:32:20;;;;;;;9.20;2.45;;;;;;;4.56;48.98;99532.03;5040198;28;20091;-75
2022/02/13 09:34:46;;;;;;;10.20;1.92;;;;;;;4.50;49.13;99530.28;5036604;28;20058;-75
2022/02/13 09:37:13;;;;;;;11.93;2.50;;;;;;;4.66;48.67;99540.34;5008247;28;20060;-76
2022/02/13 09:39:40;;;;;;;8.75;2.40;;;;;;;4.65;48.50;99546.81;5015148;28;20085;-72
2022/02/13 09:42:08;;;;;;;12.50;2.50;;;;;;;4.58;48.61;99532.63;5012760;28;20505;-71
2022/02/13 09:44:35;;;;;;;9.07;2.47;;;;;;;4.52;49.08;99549.81;5028479;28;20472;-71
2022/02/13 09:47:02;;;;;;;10.45;2.88;;;;;;;4.60;48.83;99535.06;5029061;28;20045;-71
2022/02/13 09:49:29;;;;;;;11.10;2.78;;;;;;;4.69;48.80;99555.28;5045934;28;20060;-72
2022/02/13 09:51:56;;;;;;;10.88;2.60;;;;;;;4.75;48.79;99548.09;5027070;28;20140;-70
2022/02/13 09:54:25;;;;;;;14.77;2.70;;;;;;;4.64;48.61;99556.00;5032811;28;20084;-72
2022/02/13 09:57:59;;;;;;;15.63;3.17;;;;;;;4.59;48.66;99553.22;5030374;28;20068;-72
2022/02/13 09:59:52;;;;;;;11.52;3.17;;;;;;;4.65;48.36;99549.53;5024337;28;20133;-71
2022/02/13 10:02:31;;;;;;;9.05;2.65;;;;;;;4.54;48.36;99555.84;5020063;28;20042;-71
2022/02/13 10:04:59;;;;;;;8.50;2.25;;;;;;;4.40;48.88;99564.22;5022699;28;20041;-72
2022/02/13 10:07:24;;;;;;;;;;;;;;;4.37;48.91;99540.34;5026656;28;20056;-71
2022/02/13 10:09:57;;;;;;;17.02;2.53;;;;;;;4.40;48.71;99549.84;5038214;28;19929;-72
2022/02/13 10:12:30;;;;;;;10.52;2.17;;;;;;;4.35;48.71;99538.94;5035449;28;20069;-71
2022/02/13 10:14:56;;;;;;;12.07;1.95;;;;;;;4.34;48.76;99542.72;5026088;28;20054;-72
2022/02/13 10:17:25;;;;;;;7.32;1.75;;;;;;;4.38;48.95;99541.16;5025644;28;20527;-72
2022/02/13 10:19:53;;;;;;;9.38;2.50;;;;;;;4.32;48.81;99531.31;5023237;28;20050;-73
2022/02/13 10:22:34;;;;;;;8.10;1.92;;;;;;;4.31;49.05;99554.81;5027640;28;20065;-72
2022/02/13 10:25:14;;;;;;;9.40;2.00;;;;;;;4.37;48.82;99547.63;5044525;28;20041;-71
2022/02/13 10:27:45;;;;;;;7.47;1.88;;;;;;;4.30;48.85;99546.97;5019147;28;20058;-72
2022/02/13 10:30:11;;;;;;;11.70;2.50;;;;;;;4.29;48.98;99538.00;5014894;28;20050;-70
2022/02/13 10:32:41;;;;;;;9.20;1.90;;;;;;;4.29;48.78;99540.72;5030922;28;20081;-70
2022/02/13 10:35:15;;;;;;;6.82;1.90;;;;;;;4.43;48.35;99546.66;5032642;28;20131;-72
2022/02/13 10:37:45;;;;;;;12.77;2.45;;;;;;;4.49;48.28;99540.31;5031265;28;20053;-72
2022/02/13 10:40:14;;;;;;;8.02;1.85;;;;;;;4.47;48.48;99541.59;5025753;28;20576;-71
2022/02/13 10:42:41;;;;;;;9.68;2.20;;;;;;;4.55;48.15;99543.94;5033011;28;20464;-72
2022/02/13 10:45:18;;;;;;;14.20;2.60;;;;;;;4.64;47.98;99536.25;5033162;28;20061;-71
2022/02/13 10:47:45;;;;;;;10.93;2.20;;;;;;;4.56;47.85;99529.34;5025128;28;20045;-71
2022/02/13 10:50:13;;;;;;;6.93;1.98;;;;;;;4.43;47.99;99527.72;5013259;28;20050;-71
2022/02/13 10:52:41;;;;;;;13.32;2.40;;;;;;;4.74;47.63;99538.31;5032170;28;20049;-71
2022/02/13 10:55:10;;;;;;;;;;;;;;;5.08;47.13;99541.94;5030322;28;20049;-71
2022/02/13 10:57:37;;;;;;;13.35;2.80;;;;;;;5.42;46.67;99551.94;5018543;28;20020;-70
2022/02/13 11:00:09;;;;;;;;;;;;;;;5.96;45.40;99554.09;5047952;28;20056;-71
2022/02/13 11:02:38;;;;;;;10.93;2.75;;;;;;;6.70;44.42;99520.53;5024231;28;20434;-70
2022/02/13 11:05:06;;;;;;;13.27;3.78;;;;;;;6.87;44.05;99534.84;5029301;28;20053;-72
2022/02/13 11:07:34;;;;;;;12.70;3.70;;;;;;;8.08;42.34;99543.63;5023113;28;20050;-72
2022/02/13 11:10:01;;;;;;;13.02;4.75;;;;;;;9.03;40.58;99538.22;5029508;28;20045;-72
2022/02/13 11:12:30;;;;;;;10.57;3.90;;;;;;;10.11;39.72;99522.81;5033493;28;20140;-72
2022/02/13 11:15:15;;;;;;;11.80;3.25;;;;;;;10.25;38.96;99539.47;5024911;28;20497;-71
2022/02/13 11:17:43;;;;;;;10.93;2.75;;;;;;;10.24;38.89;99535.91;5020801;28;20049;-72
2022/02/13 11:20:11;;;;;;;8.77;2.33;;;;;;;10.18;38.15;99520.63;5019101;28;20050;-71
2022/02/13 11:22:37;;;;;;;10.63;2.20;;;;;;;9.58;39.35;99524.84;5014394;28;20050;-71
2022/02/13 11:25:06;;;;;;;11.02;2.40;;;;;;;9.24;39.59;99530.06;5029195;28;20132;-71
2022/02/13 11:27:57;;;;;;;13.88;2.50;;;;;;;8.92;39.49;99537.41;5028861;28;20414;-71
2022/02/13 11:30:44;;;;;;;11.73;2.47;;;;;;;8.72;39.77;99536.28;5019989;28;20058;-70
2022/02/13 11:33:32;;;;;;;12.85;2.50;;;;;;;8.37;40.20;99546.75;5021367;28;20053;-73
2022/02/13 11:35:59;;;;;;;15.07;2.60;;;;;;;8.03;40.80;99532.69;5032774;28;20517;-72
2022/02/13 11:38:57;;;;;;;11.82;2.40;;;;;;;7.65;41.35;99532.78;5018673;28;20056;-71
2022/02/13 11:42:06;;;;;;;9.40;2.47;;;;;;;7.23;41.99;99546.06;5032266;28;20049;-71